Time;durP1;ratioP1;P1;durP2;ratioP2;P2;SDS_P1;SDS_P2;PMS_P1;PMS_P2;Temp;Humidity;BMP_temperature;BMP_pressure;BME280_temperature;BME280_humidity;BME280_pressure;Samples;Min_cycle;Max_cycle;Signal;HPM_P1;HPM_P2
2022/08/17 00:00:38;;;;;;;9.40;8.00;;;24.70;36.10;;;;;;5053885;28;20069;-87
2022/08/17 00:03:07;;;;;;;10.45;8.25;;;24.70;34.00;;;;;;5053750;28;20021;-87
2022/08/17 00:05:37;;;;;;;12.80;8.48;;;24.70;31.20;;;;;;5053716;28;20040;-88
2022/08/17 00:08:03;;;;;;;10.40;8.00;;;24.50;34.60;;;;;;5053825;28;20104;-87
2022/08/17 00:10:29;;;;;;;13.52;8.43;;;24.60;29.40;;;;;;5053705;28;20106;-87
2022/08/17 00:12:55;;;;;;;10.63;7.97;;;24.50;41.90;;;;;;5053323;28;20402;-86
2022/08/17 00:15:22;;;;;;;10.38;7.65;;;24.60;32.70;;;;;;5053482;28;20032;-87
2022/08/17 00:17:49;;;;;;;10.70;8.38;;;24.70;35.30;;;;;;5053076;28;20029;-87
2022/08/17 00:20:16;;;;;;;12.23;8.02;;;24.70;32.50;;;;;;5053359;28;20716;-87
2022/08/17 00:22:42;;;;;;;10.85;7.93;;;24.70;32.70;;;;;;5053525;28;20013;-87
2022/08/17 00:25:12;;;;;;;10.50;8.35;;;24.60;32.40;;;;;;5053183;28;20033;-87
2022/08/17 00:27:38;;;;;;;10.15;8.00;;;24.60;30.90;;;;;;5053013;28;20107;-87
2022/08/17 00:30:06;;;;;;;10.73;8.05;;;24.50;26.40;;;;;;5053199;28;20048;-87
2022/08/17 00:32:43;;;;;;;11.77;8.02;;;24.50;32.10;;;;;;5052962;28;20028;-87
2022/08/17 00:35:11;;;;;;;12.05;8.43;;;24.40;34.20;;;;;;5053272;28;20035;-87
2022/08/17 00:37:37;;;;;;;10.70;8.27;;;24.30;29.80;;;;;;5052910;28;20456;-87
2022/08/17 00:40:03;;;;;;;8.65;7.75;;;24.30;23.70;;;;;;5053036;28;20105;-87
2022/08/17 00:42:29;;;;;;;8.93;7.65;;;24.30;31.40;;;;;;5053287;28;20107;-88
2022/08/17 00:44:55;;;;;;;10.05;7.63;;;24.30;24.30;;;;;;5053000;28;20121;-87
2022/08/17 00:47:20;;;;;;;8.63;7.47;;;24.20;26.00;;;;;;5052839;28;20027;-87
2022/08/17 00:49:46;;;;;;;8.63;7.80;;;24.10;26.30;;;;;;5052777;28;20029;-87
2022/08/17 00:52:17;;;;;;;9.15;8.20;;;24.00;24.30;;;;;;5052863;28;20024;-87
2022/08/17 00:54:47;;;;;;;10.00;8.52;;;24.10;30.70;;;;;;5052984;28;20029;-87
2022/08/17 00:57:22;;;;;;;9.18;7.97;;;23.90;28.60;;;;;;5052794;28;20436;-87
2022/08/17 00:59:53;;;;;;;10.60;8.50;;;23.90;30.00;;;;;;5052605;28;20112;-87
2022/08/17 01:02:19;;;;;;;9.65;8.73;;;24.00;30.00;;;;;;5052396;28;20056;-87
2022/08/17 01:04:48;;;;;;;8.98;8.18;;;23.80;26.20;;;;;;5052697;28;20031;-87
2022/08/17 01:07:15;;;;;;;9.35;8.45;;;23.80;29.80;;;;;;5052754;28;20029;-87
2022/08/17 01:09:41;;;;;;;9.70;8.80;;;23.60;31.40;;;;;;5052633;28;20017;-87
2022/08/17 01:12:09;;;;;;;10.02;8.10;;;23.70;32.00;;;;;;5052495;28;20043;-87
2022/08/17 01:14:35;;;;;;;8.20;7.32;;;23.60;39.90;;;;;;5052403;28;20517;-87
2022/08/17 01:17:01;;;;;;;9.00;8.07;;;23.50;31.90;;;;;;5052252;28;20025;-87
2022/08/17 01:19:31;;;;;;;8.52;7.50;;;23.40;32.10;;;;;;5052474;28;20574;-87
2022/08/17 01:22:11;;;;;;;8.63;7.72;;;23.40;36.90;;;;;;5052616;28;20029;-87
2022/08/17 01:24:43;;;;;;;8.77;7.88;;;23.50;37.40;;;;;;5052504;28;20079;-87
2022/08/17 01:27:12;;;;;;;9.00;8.10;;;23.50;40.60;;;;;;5052266;28;20048;-87
2022/08/17 01:29:42;;;;;;;10.88;7.63;;;23.30;39.20;;;;;;5034382;28;20489;-87
2022/08/17 01:32:08;;;;;;;8.43;7.72;;;23.30;36.00;;;;;;5052168;28;20037;-87
2022/08/17 01:34:35;;;;;;;8.90;8.00;;;23.40;37.40;;;;;;5052424;28;20049;-87
2022/08/17 01:37:01;;;;;;;8.15;7.45;;;23.50;46.00;;;;;;5052463;28;20100;-87
2022/08/17 01:39:46;;;;;;;9.63;8.18;;;23.40;38.20;;;;;;5052457;28;20070;-87
2022/08/17 01:42:43;;;;;;;10.27;8.50;;;23.40;41.60;;;;;;5052267;28;20025;-87
2022/08/17 01:45:16;;;;;;;8.68;7.90;;;23.40;42.00;;;;;;5051961;28;20033;-86
2022/08/17 01:47:42;;;;;;;8.80;7.90;;;23.30;43.10;;;;;;5052338;28;20031;-87
2022/08/17 01:50:14;;;;;;;8.73;7.93;;;23.30;42.70;;;;;;5052261;28;20029;-87
2022/08/17 01:52:46;;;;;;;8.60;7.90;;;23.30;41.80;;;;;;5052341;28;20424;-87
2022/08/17 01:55:14;;;;;;;8.77;7.93;;;23.20;40.80;;;;;;5052312;28;20070;-87
2022/08/17 01:57:40;;;;;;;9.10;8.20;;;23.10;42.00;;;;;;5052257;28;20052;-87
2022/08/17 02:00:10;;;;;;;8.70;8.00;;;22.90;40.70;;;;;;5051793;28;20082;-87
2022/08/17 02:02:36;;;;;;;8.88;8.00;;;22.60;46.80;;;;;;5052138;28;20040;-87
2022/08/17 02:05:01;;;;;;;7.88;7.28;;;22.50;37.60;;;;;;5052165;28;20025;-87
2022/08/17 02:07:27;;;;;;;9.18;8.18;;;22.40;37.10;;;;;;5052064;28;20037;-87
2022/08/17 02:09:53;;;;;;;8.57;7.78;;;22.60;37.60;;;;;;5034718;28;20028;-87
2022/08/17 02:12:18;;;;;;;8.10;7.40;;;22.60;37.40;;;;;;5055895;28;20032;-87
2022/08/17 02:14:45;;;;;;;10.15;8.68;;;22.80;37.90;;;;;;5055105;28;20025;-89
2022/08/17 02:17:10;;;;;;;8.30;7.57;;;22.80;26.20;;;;;;5055484;28;20028;-87
2022/08/17 02:19:36;;;;;;;8.48;7.55;;;22.70;47.80;;;;;;5055677;28;20029;-87
2022/08/17 02:22:02;;;;;;;8.30;7.50;;;22.70;39.60;;;;;;5055821;28;20460;-87
2022/08/17 02:24:31;;;;;;;8.38;7.68;;;22.70;38.40;;;;;;5055479;28;20025;-87
2022/08/17 02:26:57;;;;;;;7.88;7.18;;;22.60;39.50;;;;;;5047631;28;20098;-87
2022/08/17 02:29:23;;;;;;;9.25;7.65;;;22.60;34.70;;;;;;5055195;28;20115;-87
2022/08/17 02:31:48;;;;;;;8.30;7.40;;;22.40;37.70;;;;;;5055216;28;20068;-87
2022/08/17 02:34:14;;;;;;;8.55;7.70;;;22.30;33.80;;;;;;5055329;28;20021;-87
2022/08/17 02:36:40;;;;;;;8.13;7.38;;;22.30;32.90;;;;;;5055507;28;20034;-87
2022/08/17 02:39:09;;;;;;;8.82;7.95;;;22.20;33.50;;;;;;5055270;28;20036;-87
2022/08/17 02:41:35;;;;;;;8.85;8.05;;;22.10;41.10;;;;;;5055241;28;20029;-87
2022/08/17 02:44:01;;;;;;;9.05;8.20;;;22.10;33.60;;;;;;5054860;28;20393;-87
2022/08/17 02:46:27;;;;;;;8.55;7.28;;;22.10;32.00;;;;;;5055185;28;20025;-87
2022/08/17 02:48:53;;;;;;;8.45;7.65;;;22.20;34.80;;;;;;5055130;28;20029;-87
2022/08/17 02:51:18;;;;;;;8.55;7.75;;;22.10;33.00;;;;;;5055132;28;20025;-86
2022/08/17 02:53:45;;;;;;;8.50;7.63;;;22.10;30.60;;;;;;5055175;28;20079;-87
2022/08/17 02:56:11;;;;;;;8.18;7.47;;;22.10;35.10;;;;;;5055001;28;20024;-87
2022/08/17 02:58:36;;;;;;;9.98;8.30;;;22.00;32.80;;;;;;5054856;28;20047;-87
2022/08/17 03:01:04;;;;;;;9.32;8.57;;;21.90;33.70;;;;;;5054854;28;20037;-87
2022/08/17 03:03:30;;;;;;;9.10;8.30;;;22.00;38.50;;;;;;5054852;28;20029;-87
2022/08/17 03:05:56;;;;;;;9.40;8.32;;;21.90;30.30;;;;;;5054950;28;20113;-88
2022/08/17 03:08:22;;;;;;;9.07;8.27;;;21.90;41.10;;;;;;5054839;28;20028;-87
2022/08/17 03:10:48;;;;;;;9.48;8.52;;;21.80;33.00;;;;;;5054729;28;20032;-87
2022/08/17 03:13:14;;;;;;;9.23;8.43;;;21.80;33.00;;;;;;5054313;28;20033;-87
2022/08/17 03:15:43;;;;;;;9.10;8.20;;;21.90;34.70;;;;;;5054711;28;20029;-87
2022/08/17 03:18:11;;;;;;;9.63;8.73;;;21.80;53.50;;;;;;5054640;28;20487;-87
2022/08/17 03:20:37;;;;;;;9.30;8.50;;;21.70;40.80;;;;;;5054393;28;20090;-86
2022/08/17 03:23:03;;;;;;;9.70;8.75;;;21.70;33.50;;;;;;5054507;28;20033;-87
2022/08/17 03:25:36;;;;;;;9.95;9.05;;;21.60;31.70;;;;;;5054385;28;20036;-86
2022/08/17 03:28:03;;;;;;;9.70;8.80;;;21.60;38.80;;;;;;5054086;28;20049;-87
2022/08/17 03:30:29;;;;;;;9.57;8.68;;;21.70;36.70;;;;;;5054356;28;20071;-86
2022/08/17 03:33:02;;;;;;;9.68;8.88;;;21.70;29.30;;;;;;5054389;28;20413;-87
2022/08/17 03:35:30;;;;;;;10.35;9.15;;;21.60;40.50;;;;;;5054374;28;20118;-87
2022/08/17 03:37:56;;;;;;;9.82;8.82;;;21.60;40.00;;;;;;5054344;28;20052;-87
2022/08/17 03:40:23;;;;;;;12.05;9.48;;;21.50;41.80;;;;;;5054195;28;20035;-87
2022/08/17 03:42:52;;;;;;;10.82;9.27;;;21.60;33.90;;;;;;5053936;28;20033;-87
2022/08/17 03:56:41;;;;;;;13.23;9.38;;;21.60;34.00;;;;;;5054079;28;20047;-87
2022/08/17 03:56:42;;;;;;;11.77;9.45;;;21.30;37.30;;;;;;5053887;28;20152;-87
2022/08/17 03:59:28;;;;;;;10.68;9.60;;;21.40;33.00;;;;;;5053849;28;20486;-87
2022/08/17 04:01:55;;;;;;;11.43;9.90;;;21.20;33.20;;;;;;5053345;28;20067;-87
2022/08/17 04:04:22;;;;;;;10.70;9.65;;;21.30;36.60;;;;;;5035514;28;20509;-87
2022/08/17 04:06:48;;;;;;;11.93;9.40;;;21.30;37.20;;;;;;5052427;28;20041;-87
2022/08/17 04:09:13;;;;;;;11.20;10.10;;;21.30;33.10;;;;;;5053412;28;20021;-87
2022/08/17 04:11:39;;;;;;;11.07;10.00;;;21.30;29.30;;;;;;5053326;28;20066;-86
2022/08/17 04:14:06;;;;;;;10.95;9.50;;;21.30;37.20;;;;;;5053364;28;20021;-87
2022/08/17 04:16:33;;;;;;;10.75;9.65;;;21.40;30.50;;;;;;5053661;28;20055;-87
2022/08/17 04:18:59;;;;;;;10.30;9.35;;;21.40;37.40;;;;;;5053357;28;20087;-87
2022/08/17 04:21:25;;;;;;;12.55;9.77;;;21.50;30.30;;;;;;5052846;28;20489;-88
2022/08/17 04:23:51;;;;;;;9.75;8.75;;;21.60;29.00;;;;;;5052770;28;20113;-87
2022/08/17 04:26:17;;;;;;;11.57;9.30;;;21.70;32.60;;;;;;5052473;28;20041;-87
2022/08/17 04:28:43;;;;;;;10.40;9.05;;;21.80;34.30;;;;;;5053200;28;20021;-87
2022/08/17 04:31:10;;;;;;;11.18;8.52;;;21.90;17.60;;;;;;5053202;28;20048;-87
2022/08/17 04:33:37;;;;;;;10.23;9.23;;;21.80;52.80;;;;;;5052637;28;20099;-87
2022/08/17 04:36:05;;;;;;;11.43;9.05;;;21.70;47.80;;;;;;5053316;28;20025;-87
2022/08/17 04:38:33;;;;;;;9.02;8.32;;;21.70;35.30;;;;;;5053142;28;20049;-87
2022/08/17 04:43:46;;;;;;;9.90;8.90;;;21.40;43.70;;;;;;5053429;28;20063;-87
2022/08/17 04:46:15;;;;;;;10.00;9.10;;;21.40;50.30;;;;;;5052895;28;20057;-87
2022/08/17 04:48:47;;;;;;;9.90;9.02;;;21.30;49.80;;;;;;5053213;28;20025;-88
2022/08/17 04:51:20;;;;;;;9.98;9.00;;;21.20;56.50;;;;;;5052953;28;20067;-88
2022/08/17 04:53:48;;;;;;;9.40;8.60;;;21.10;49.40;;;;;;5052611;28;20422;-88
2022/08/17 04:56:15;;;;;;;10.07;8.57;;;21.30;51.30;;;;;;5052841;28;20021;-87
2022/08/17 04:58:52;;;;;;;9.48;8.10;;;21.40;53.40;;;;;;5052898;28;20024;-87
2022/08/17 05:01:19;;;;;;;9.20;8.30;;;21.50;49.10;;;;;;5052704;28;20021;-88
2022/08/17 05:03:45;;;;;;;9.60;7.97;;;21.50;47.10;;;;;;5052764;28;20374;-87
2022/08/17 05:06:11;;;;;;;9.82;7.55;;;21.60;39.50;;;;;;5052685;28;20108;-88
2022/08/17 05:08:37;;;;;;;7.90;7.28;;;21.60;47.80;;;;;;5052618;28;20461;-88
2022/08/17 05:11:04;;;;;;;7.90;7.20;;;21.60;53.70;;;;;;5052593;28;20103;-88
2022/08/17 05:13:30;;;;;;;7.72;7.07;;;21.70;45.80;;;;;;5052433;28;20079;-87
2022/08/17 05:15:58;;;;;;;7.45;6.85;;;21.70;40.40;;;;;;5052692;28;20432;-87
2022/08/17 05:18:24;;;;;;;7.90;7.30;;;21.90;37.50;;;;;;5052618;28;20025;-87
2022/08/17 05:20:51;;;;;;;8.25;7.45;;;21.90;31.10;;;;;;5052492;28;20531;-87
2022/08/17 05:23:18;;;;;;;8.02;7.22;;;22.00;33.60;;;;;;5052192;28;20036;-87
2022/08/17 05:25:49;;;;;;;10.32;6.95;;;21.90;36.30;;;;;;5052362;28;20041;-88
2022/08/17 05:28:17;;;;;;;8.48;7.78;;;21.90;39.60;;;;;;5052163;28;20479;-87
2022/08/17 05:30:43;;;;;;;7.90;7.10;;;21.90;53.80;;;;;;5052470;28;20436;-87
2022/08/17 05:33:10;;;;;;;7.60;6.90;;;22.00;58.10;;;;;;5052524;28;20094;-87
2022/08/17 05:35:41;;;;;;;7.07;6.50;;;21.90;61.00;;;;;;5052338;28;20021;-87
2022/08/17 05:38:07;;;;;;;8.30;6.65;;;22.10;58.00;;;;;;5051938;28;20546;-87
2022/08/17 05:40:33;;;;;;;8.00;6.80;;;22.10;57.40;;;;;;5052254;28;20466;-87
2022/08/17 05:43:13;;;;;;;7.78;6.85;;;22.10;62.30;;;;;;5052399;28;20029;-87
2022/08/17 05:45:43;;;;;;;10.18;7.22;;;22.00;62.00;;;;;;5055768;28;20112;-88
2022/08/17 05:48:09;;;;;;;7.55;6.88;;;22.00;55.60;;;;;;5056417;28;20381;-87
2022/08/17 05:50:44;;;;;;;7.72;7.03;;;22.00;50.10;;;;;;5056287;28;20022;-87
2022/08/17 05:53:14;;;;;;;7.63;6.93;;;22.00;54.60;;;;;;5056118;28;20029;-87
2022/08/17 05:56:02;;;;;;;7.85;7.05;;;22.20;68.70;;;;;;5056318;28;20052;-88
2022/08/17 05:58:35;;;;;;;7.45;6.75;;;22.40;64.70;;;;;;5056223;28;20025;-87
2022/08/17 06:01:04;;;;;;;9.60;6.97;;;22.50;74.70;;;;;;5056114;28;20100;-87
2022/08/17 06:03:55;;;;;;;10.93;7.00;;;22.60;74.40;;;;;;5056040;28;20036;-87
2022/08/17 06:06:33;;;;;;;8.18;7.05;;;22.60;77.40;;;;;;5041347;28;20095;-87
2022/08/17 06:09:14;;;;;;;7.13;6.25;;;22.60;76.80;;;;;;5055958;28;20025;-87
2022/08/17 06:11:45;;;;;;;7.57;6.82;;;22.40;74.90;;;;;;5056054;28;20103;-87
2022/08/17 06:14:33;;;;;;;9.32;7.47;;;22.40;71.60;;;;;;5055487;28;20108;-87
2022/08/17 06:17:07;;;;;;;8.10;7.00;;;22.20;75.70;;;;;;5055838;28;20025;-87
2022/08/17 06:19:50;;;;;;;8.50;6.80;;;22.60;73.60;;;;;;5055829;28;20438;-87
2022/08/17 06:22:19;;;;;;;7.53;6.82;;;22.60;66.90;;;;;;5055367;28;20029;-87
2022/08/17 06:24:55;;;;;;;8.65;7.00;;;22.70;85.90;;;;;;5055705;28;20052;-88
2022/08/17 06:27:34;;;;;;;7.50;6.78;;;22.70;70.90;;;;;;5055420;28;20052;-87
2022/08/17 06:30:05;;;;;;;11.48;6.90;;;22.40;67.40;;;;;;5055521;28;20048;-87
2022/08/17 06:32:31;;;;;;;9.13;6.60;;;22.50;68.90;;;;;;5055595;28;20393;-87
2022/08/17 06:34:59;;;;;;;7.50;6.50;;;22.60;52.20;;;;;;5055192;28;20029;-88
2022/08/17 06:38:04;;;;;;;7.32;6.65;;;22.90;65.40;;;;;;5055481;28;20017;-87
2022/08/17 06:40:47;;;;;;;8.05;6.57;;;23.20;61.60;;;;;;5055354;28;20031;-87
2022/08/17 06:43:40;;;;;;;6.93;6.30;;;23.60;66.70;;;;;;5055500;28;20036;-87
2022/08/17 06:46:18;;;;;;;8.18;7.38;;;23.70;68.40;;;;;;5055265;28;20037;-87
2022/08/17 06:49:10;;;;;;;7.40;6.72;;;23.70;69.00;;;;;;5055280;28;20478;-87
2022/08/17 06:52:11;;;;;;;7.40;6.70;;;23.80;70.50;;;;;;5055246;28;20028;-88
2022/08/17 06:54:57;;;;;;;7.68;6.90;;;24.20;70.80;;;;;;5055285;28;20381;-87
2022/08/17 06:57:27;;;;;;;8.10;7.30;;;24.40;66.40;;;;;;5040586;28;20041;-87
2022/08/17 07:00:21;;;;;;;8.32;6.90;;;23.90;70.50;;;;;;5054931;28;20100;-87
2022/08/17 07:03:36;;;;;;;7.47;6.65;;;23.80;70.10;;;;;;5054870;28;20025;-87
2022/08/17 07:06:15;;;;;;;8.00;7.20;;;23.90;72.30;;;;;;5048682;28;20045;-87
2022/08/17 07:08:57;;;;;;;9.30;7.13;;;23.60;80.80;;;;;;5054754;28;20466;-88
2022/08/17 07:11:31;;;;;;;8.32;7.53;;;23.40;71.70;;;;;;5054872;28;20052;-88
2022/08/17 07:13:56;;;;;;;8.07;7.38;;;23.50;68.00;;;;;;5054493;28;20459;-87
2022/08/17 07:16:31;;;;;;;9.50;7.72;;;23.80;66.60;;;;;;5054574;28;20104;-88
2022/08/17 07:18:58;;;;;;;8.07;7.20;;;24.30;68.20;;;;;;5046343;28;20029;-87
2022/08/17 07:21:54;;;;;;;8.00;6.93;;;24.40;63.70;;;;;;5054685;28;20025;-88
2022/08/17 07:24:49;;;;;;;7.75;7.15;;;24.70;72.00;;;;;;5054519;28;20029;-88
2022/08/17 07:27:21;;;;;;;7.65;6.95;;;24.70;72.00;;;;;;5054418;28;20154;-87
2022/08/17 07:29:52;;;;;;;7.80;6.65;;;24.70;74.60;;;;;;5054166;28;20098;-87
2022/08/17 07:32:22;;;;;;;7.97;7.18;;;24.90;77.60;;;;;;5054418;28;20047;-88
2022/08/17 07:35:17;;;;;;;7.95;6.85;;;24.70;75.60;;;;;;5053998;28;20410;-86
2022/08/17 07:37:52;;;;;;;7.45;6.75;;;24.40;71.60;;;;;;5054423;28;20029;-88
2022/08/17 07:40:41;;;;;;;7.43;6.72;;;24.90;72.90;;;;;;5054192;28;20040;-88
2022/08/17 07:43:23;;;;;;;7.93;6.95;;;24.90;68.30;;;;;;5043495;28;20124;-87
2022/08/17 07:48:50;;;;;;;7.70;6.63;;;24.90;76.00;;;;;;5053816;28;20036;-87
2022/08/17 07:51:21;;;;;;;7.13;6.63;;;25.50;75.20;;;;;;5054136;28;20029;-87
2022/08/17 07:53:47;;;;;;;8.13;6.40;;;25.70;80.60;;;;;;5054073;28;20539;-87
2022/08/17 07:56:37;;;;;;;7.90;7.05;;;25.40;70.00;;;;;;5053984;28;20032;-88
2022/08/17 07:59:14;;;;;;;7.63;6.93;;;25.40;76.50;;;;;;5036151;28;20405;-88
2022/08/17 08:01:43;;;;;;;7.38;6.68;;;25.10;76.60;;;;;;5053518;28;20516;-87
2022/08/17 08:04:22;;;;;;;7.53;6.82;;;25.10;70.20;;;;;;5053723;28;20036;-88
2022/08/17 08:06:53;;;;;;;8.38;7.40;;;25.20;68.90;;;;;;5053559;28;20039;-88
2022/08/17 08:09:37;;;;;;;7.55;6.85;;;25.60;68.80;;;;;;5052942;28;20115;-87
2022/08/17 08:12:33;;;;;;;7.60;6.80;;;25.40;73.00;;;;;;5053705;28;20032;-87
2022/08/17 08:15:10;;;;;;;8.88;7.05;;;25.50;65.40;;;;;;5053335;28;20035;-88
2022/08/17 08:17:50;;;;;;;8.15;6.93;;;26.50;69.40;;;;;;5053402;28;20021;-88
2022/08/17 08:20:18;;;;;;;8.05;7.25;;;26.80;71.50;;;;;;5053498;28;20033;-88
2022/08/17 08:22:58;;;;;;;8.07;7.22;;;27.00;76.90;;;;;;5053401;28;20060;-87
2022/08/17 08:25:50;;;;;;;7.88;6.80;;;26.80;77.60;;;;;;5035430;28;20403;-88
2022/08/17 08:28:34;;;;;;;8.02;7.25;;;27.00;68.90;;;;;;5052993;28;20041;-87
2022/08/17 08:31:15;;;;;;;7.97;7.07;;;27.30;71.80;;;;;;5053039;28;20496;-87
2022/08/17 08:33:53;;;;;;;8.27;7.43;;;27.40;90.70;;;;;;5053308;28;20486;-88
2022/08/17 08:36:41;;;;;;;10.02;7.43;;;27.00;72.20;;;;;;5053160;28;20143;-88
2022/08/17 08:39:22;;;;;;;9.57;7.60;;;27.50;63.50;;;;;;5053084;28;20478;-88
2022/08/17 08:41:58;;;;;;;9.13;6.95;;;27.40;73.10;;;;;;5053254;28;20060;-88
2022/08/17 08:44:23;;;;;;;9.05;7.38;;;28.00;71.20;;;;;;5053148;28;20025;-88
2022/08/17 08:46:54;;;;;;;8.77;7.40;;;27.90;68.80;;;;;;5052670;28;20577;-88
2022/08/17 08:49:39;;;;;;;9.75;7.55;;;27.40;69.20;;;;;;5053043;28;20051;-88
2022/08/17 08:52:20;;;;;;;8.48;7.10;;;27.60;71.10;;;;;;5052926;28;20033;-88
2022/08/17 08:55:14;;;;;;;12.57;7.63;;;27.70;80.00;;;;;;5052870;28;20092;-88
2022/08/17 08:57:51;;;;;;;9.30;7.20;;;27.70;78.10;;;;;;5052814;28;20021;-87
2022/08/17 09:00:20;;;;;;;8.35;7.13;;;27.30;81.60;;;;;;5052419;28;20048;-88
2022/08/17 09:03:26;;;;;;;9.02;7.40;;;27.50;83.00;;;;;;5052784;28;20112;-87
2022/08/17 09:06:08;;;;;;;9.40;7.28;;;27.70;86.30;;;;;;5052582;28;20029;-87
2022/08/17 09:09:08;;;;;;;11.30;7.57;;;27.80;84.70;;;;;;5052784;28;20397;-88
2022/08/17 09:11:57;;;;;;;10.52;7.70;;;27.80;86.90;;;;;;5052493;28;20036;-88
2022/08/17 09:14:34;;;;;;;8.32;7.15;;;28.00;82.90;;;;;;5052104;28;20489;-88
2022/08/17 09:17:34;;;;;;;10.52;7.35;;;28.10;86.10;;;;;;5052508;28;20044;-88
2022/08/17 09:20:11;;;;;;;8.77;7.07;;;28.50;84.60;;;;;;5044276;28;20037;-88
2022/08/17 09:22:41;;;;;;;11.52;7.30;;;28.80;84.00;;;;;;5052489;28;20021;-88
2022/08/17 09:25:15;;;;;;;10.45;7.90;;;29.10;83.10;;;;;;5052431;28;20505;-88
2022/08/17 09:27:57;;;;;;;8.13;7.32;;;28.90;79.40;;;;;;5052158;28;20059;-88
2022/08/17 09:30:35;;;;;;;8.18;7.45;;;28.90;81.70;;;;;;5051880;28;20036;-87
2022/08/17 09:33:05;;;;;;;8.43;7.57;;;29.20;81.90;;;;;;5052441;28;20025;-87
2022/08/17 09:35:43;;;;;;;9.98;7.82;;;28.90;79.80;;;;;;5052373;28;20055;-88
2022/08/17 09:38:27;;;;;;;8.57;7.45;;;28.80;79.90;;;;;;5052317;28;20482;-87
2022/08/17 09:41:12;;;;;;;9.82;7.60;;;28.80;80.60;;;;;;5034470;28;20025;-88
2022/08/17 09:43:58;;;;;;;9.32;7.65;;;28.30;79.60;;;;;;5034062;28;20490;-88
2022/08/17 09:46:38;;;;;;;10.23;7.82;;;28.60;82.60;;;;;;5052288;28;20033;-87
2022/08/17 09:49:19;;;;;;;9.68;7.85;;;28.70;82.90;;;;;;5052202;28;20052;-87
2022/08/17 09:51:55;;;;;;;9.88;8.18;;;28.80;79.40;;;;;;5052215;28;20033;-88
2022/08/17 09:54:31;;;;;;;10.43;7.90;;;28.80;79.40;;;;;;5052274;28;20025;-88
2022/08/17 09:57:06;;;;;;;14.20;7.45;;;28.80;77.30;;;;;;5052067;28;20029;-87
2022/08/17 09:59:53;;;;;;;9.27;7.75;;;28.80;77.20;;;;;;5051823;28;20105;-88
2022/08/17 10:03:18;;;;;;;9.68;7.32;;;28.90;78.60;;;;;;5052003;28;20025;-88
2022/08/17 10:06:12;;;;;;;8.00;7.20;;;28.90;80.90;;;;;;4971193;28;20520;-88
2022/08/17 10:08:37;;;;;;;8.50;7.65;;;29.50;81.10;;;;;;4971229;28;20330;-88
2022/08/17 10:11:18;;;;;;;11.25;7.45;;;29.50;73.80;;;;;;4971315;28;20484;-88
2022/08/17 10:13:47;;;;;;;11.10;7.72;;;29.60;80.80;;;;;;4970805;28;20066;-88
2022/08/17 10:16:37;;;;;;;8.88;7.88;;;29.80;78.20;;;;;;4971073;28;20500;-87
2022/08/17 10:19:34;;;;;;;8.13;7.30;;;30.10;81.70;;;;;;4971215;28;20486;-88
2022/08/17 10:28:15;;;;;;;12.05;7.28;;;30.70;78.60;;;;;;4970620;28;20590;-88
2022/08/17 10:30:51;;;;;;;11.77;7.35;;;30.80;79.00;;;;;;4949459;28;20035;-88
2022/08/17 10:33:26;;;;;;;7.35;6.38;;;31.10;78.20;;;;;;4955544;29;20146;-88
2022/08/17 10:36:16;;;;;;;11.15;7.20;;;31.40;78.20;;;;;;4955345;29;20039;-88
2022/08/17 10:38:48;;;;;;;11.85;6.88;;;32.60;78.10;;;;;;4955347;29;20480;-87
2022/08/17 10:41:39;;;;;;;8.00;6.80;;;34.80;82.20;;;;;;4981158;28;20044;-88
2022/08/17 10:44:23;;;;;;;11.32;7.00;;;37.00;81.70;;;;;;5035455;28;20471;-88
2022/08/17 10:47:11;;;;;;;8.43;6.78;;;38.30;79.60;;;;;;5035320;28;20036;-88
2022/08/17 10:49:46;;;;;;;9.05;6.90;;;41.50;78.20;;;;;;5035315;28;20481;-88
2022/08/17 10:52:27;;;;;;;9.98;7.10;;;41.90;73.30;;;;;;5035119;28;20026;-88
2022/08/17 10:54:55;;;;;;;12.45;7.20;;;41.80;71.10;;;;;;5017621;28;20076;-88
2022/08/17 10:57:32;;;;;;;9.80;7.25;;;41.00;67.80;;;;;;5034878;28;20422;-88
2022/08/17 11:00:14;;;;;;;9.05;6.90;;;41.40;67.00;;;;;;5035208;28;20021;-88
2022/08/17 11:02:56;;;;;;;8.20;6.55;;;41.40;67.70;;;;;;5035152;28;20367;-89
2022/08/17 11:05:31;;;;;;;9.40;6.90;;;42.90;65.90;;;;;;5034986;28;20120;-88
2022/08/17 11:08:12;;;;;;;9.90;6.45;;;43.20;60.00;;;;;;5035151;28;20033;-89
2022/08/17 11:10:37;;;;;;;9.13;6.50;;;43.20;59.40;;;;;;5016887;28;20108;-88
2022/08/17 11:13:20;;;;;;;8.10;6.78;;;43.20;55.00;;;;;;5036076;28;20116;-89
2022/08/17 11:15:55;;;;;;;9.27;7.07;;;42.00;55.40;;;;;;5054763;28;20025;-89
2022/08/17 11:18:49;;;;;;;10.13;6.75;;;41.90;56.40;;;;;;5054713;28;20554;-89
2022/08/17 11:21:39;;;;;;;6.90;6.13;;;42.10;55.90;;;;;;5054764;28;20100;-89
2022/08/17 11:24:17;;;;;;;8.98;6.38;;;43.50;54.90;;;;;;5054699;28;20051;-89
2022/08/17 11:26:57;;;;;;;8.35;6.43;;;44.70;53.30;;;;;;5053846;28;20139;-89
2022/08/17 11:29:28;;;;;;;11.77;7.13;;;44.70;51.00;;;;;;5054360;28;20071;-89
2022/08/17 11:32:06;;;;;;;9.80;6.65;;;43.70;47.50;;;;;;5054498;28;20025;-89
2022/08/17 11:34:33;;;;;;;8.52;6.93;;;43.10;46.40;;;;;;5036617;28;20025;-89
2022/08/17 11:37:25;;;;;;;7.30;6.43;;;41.80;48.00;;;;;;5054400;28;20036;-89
2022/08/17 11:40:19;;;;;;;7.65;6.13;;;42.20;49.40;;;;;;4972933;28;20038;-89
2022/08/17 11:43:07;;;;;;;8.95;6.28;;;40.70;48.90;;;;;;4973075;28;20496;-89
2022/08/17 11:45:44;;;;;;;7.60;5.88;;;42.00;49.80;;;;;;4973365;28;20047;-88
2022/08/17 11:51:59;;;;;;;11.45;6.07;;;41.60;48.80;;;;;;4973494;28;20038;-89
2022/08/17 11:54:34;;;;;;;7.70;5.90;;;40.30;48.30;;;;;;4972976;28;20050;-89
2022/08/17 11:57:24;;;;;;;8.75;6.05;;;39.70;46.00;;;;;;4965920;28;20074;-89
2022/08/17 11:59:57;;;;;;;8.60;6.60;;;38.50;47.80;;;;;;4973132;28;20050;-89
2022/08/17 12:02:31;;;;;;;8.90;6.15;;;37.50;47.90;;;;;;4973066;28;20030;-89
2022/08/17 12:05:12;;;;;;;10.32;7.18;;;37.50;47.40;;;;;;4972833;28;20039;-89
2022/08/17 12:08:31;;;;;;;7.70;6.45;;;37.40;49.50;;;;;;4973084;28;20086;-88
2022/08/17 12:11:09;;;;;;;11.40;6.88;;;37.80;47.00;;;;;;4915383;29;20043;-88
2022/08/17 12:13:42;;;;;;;10.57;6.55;;;38.40;48.70;;;;;;4915257;29;20495;-89
2022/08/17 12:16:13;;;;;;;7.45;6.55;;;37.10;47.70;;;;;;4925812;29;20381;-89
2022/08/17 12:18:49;;;;;;;8.90;6.82;;;35.70;47.10;;;;;;4953531;29;20128;-89
2022/08/17 12:21:24;;;;;;;8.38;6.78;;;35.10;47.90;;;;;;4953498;29;20031;-88
2022/08/17 12:24:10;;;;;;;11.95;7.45;;;34.80;49.10;;;;;;4953168;29;20504;-89
2022/08/17 12:26:36;;;;;;;14.40;7.13;;;34.20;48.80;;;;;;4953043;29;20555;-88
2022/08/17 12:29:06;;;;;;;8.60;6.88;;;33.80;45.00;;;;;;4960155;28;20093;-88
2022/08/17 12:31:43;;;;;;;8.98;7.10;;;34.20;49.40;;;;;;4972640;28;20541;-87
2022/08/17 12:34:16;;;;;;;9.50;6.70;;;34.70;49.40;;;;;;4972357;28;20039;-87
2022/08/17 12:36:42;;;;;;;9.63;6.72;;;34.90;49.40;;;;;;4972444;28;20034;-87
2022/08/17 12:39:08;;;;;;;10.63;6.78;;;35.10;46.60;;;;;;4971961;28;20447;-87
2022/08/17 12:41:42;;;;;;;9.38;7.03;;;34.80;44.30;;;;;;4972445;28;20031;-88
2022/08/17 12:44:12;;;;;;;7.97;6.43;;;34.70;48.80;;;;;;4972296;28;20042;-87
2022/08/17 12:46:52;;;;;;;8.40;6.28;;;34.10;47.30;;;;;;5015589;28;20045;-87
2022/08/17 12:49:41;;;;;;;9.27;7.07;;;33.80;49.80;;;;;;5053031;28;20017;-88
2022/08/17 12:52:14;;;;;;;9.25;6.97;;;33.00;49.60;;;;;;5052583;28;20017;-88
2022/08/17 12:54:53;;;;;;;9.50;6.45;;;33.10;48.70;;;;;;5052467;28;20151;-88
2022/08/17 12:57:37;;;;;;;7.80;6.97;;;33.00;49.20;;;;;;5052974;28;20054;-87
2022/08/17 13:00:26;;;;;;;7.93;7.13;;;32.70;49.30;;;;;;5052831;28;20032;-87
2022/08/17 13:03:04;;;;;;;11.23;6.80;;;32.20;47.40;;;;;;5052752;28;20053;-87
2022/08/17 13:05:53;;;;;;;10.13;7.03;;;32.20;42.40;;;;;;5052750;28;20064;-88
2022/08/17 13:08:23;;;;;;;9.70;6.80;;;32.10;40.00;;;;;;5041661;28;20029;-88
2022/08/17 13:11:01;;;;;;;7.63;6.75;;;32.00;42.80;;;;;;5052666;28;20025;-87
2022/08/17 13:13:36;;;;;;;9.48;6.72;;;31.80;42.70;;;;;;5052545;28;20104;-87
2022/08/17 13:16:08;;;;;;;7.63;6.72;;;31.50;36.50;;;;;;5052568;28;20363;-87
2022/08/17 13:18:37;;;;;;;7.55;6.30;;;31.30;31.60;;;;;;5052690;28;20044;-87
2022/08/17 13:21:04;;;;;;;7.63;6.72;;;30.90;7.60;;;;;;5052173;28;20067;-87
2022/08/17 13:23:30;;;;;;;7.75;6.72;;;30.60;17.20;;;;;;5052599;28;20029;-87
2022/08/17 13:26:03;;;;;;;8.93;6.20;;;30.50;20.70;;;;;;5052511;28;20041;-87
2022/08/17 13:28:31;;;;;;;10.82;6.53;;;30.60;27.70;;;;;;5052156;28;20048;-87
2022/08/17 13:31:26;;;;;;;10.40;7.00;;;30.60;32.30;;;;;;5052477;28;20033;-87
2022/08/17 13:34:12;;;;;;;8.27;6.80;;;30.70;37.50;;;;;;5052466;28;20040;-87
2022/08/17 13:36:37;;;;;;;8.50;6.45;;;30.10;28.80;;;;;;5052158;28;20052;-87
2022/08/17 13:39:14;;;;;;;7.72;7.00;;;29.90;29.30;;;;;;5052426;28;20398;-87
2022/08/17 13:41:40;;;;;;;9.65;7.03;;;29.70;28.70;;;;;;5052356;28;20032;-87
2022/08/17 13:44:29;;;;;;;7.65;6.85;;;29.60;29.30;;;;;;5052377;28;20062;-87